createdAt,value
2022-09-14T00:00:18.217Z,99640.38
2022-09-14T00:02:50.798Z,99637.69
2022-09-14T00:05:21.873Z,99638.44
2022-09-14T00:07:53.393Z,99632.47
2022-09-14T00:10:23.767Z,99637.56
2022-09-14T00:12:54.299Z,99642.69
2022-09-14T00:15:25.459Z,99645.47
2022-09-14T00:17:59.644Z,99637.34
2022-09-14T00:20:28.740Z,99638.75
2022-09-14T00:23:02.375Z,99641.84
2022-09-14T00:25:32.306Z,99639.91
2022-09-14T00:28:03.734Z,99640.16
2022-09-14T00:30:33.554Z,99633.44
2022-09-14T00:33:04.110Z,99630.09
2022-09-14T00:35:36.271Z,99633.03
2022-09-14T00:38:10.837Z,99634.56
2022-09-14T00:40:46.378Z,99636.44
2022-09-14T00:43:18.225Z,99639.62
2022-09-14T00:45:51.021Z,99637.91
2022-09-14T00:48:25.267Z,99635.03
2022-09-14T00:50:55.936Z,99632.53
2022-09-14T00:53:28.031Z,99622.31
2022-09-14T00:55:57.240Z,99624.19
2022-09-14T00:58:28.794Z,99620.59
2022-09-14T01:00:59.422Z,99614.78
2022-09-14T01:03:30.399Z,99611.44
2022-09-14T01:06:10.641Z,99612.81
2022-09-14T01:08:52.238Z,99609.53
2022-09-14T01:11:26.563Z,99609.38
2022-09-14T01:14:10.426Z,99609.63
2022-09-14T01:17:07.081Z,99612.72
2022-09-14T01:19:46.862Z,99606.72
2022-09-14T01:22:20.260Z,99603.16
2022-09-14T01:24:56.934Z,99597.13
2022-09-14T01:27:31.970Z,99599.59
2022-09-14T01:30:08.538Z,99603.53
2022-09-14T01:32:46.512Z,99601.16
2022-09-14T01:35:36.564Z,99597.13
2022-09-14T01:38:34.600Z,99595.91
2022-09-14T01:41:09.312Z,99590.25
2022-09-14T01:43:41.735Z,99589.13
2022-09-14T01:46:19.190Z,99583.88
2022-09-14T01:49:02.804Z,99587.06
2022-09-14T01:51:43.500Z,99580.19
2022-09-14T01:54:27.070Z,99575.69
2022-09-14T01:57:10.486Z,99574.00
2022-09-14T01:59:48.789Z,99564.69
2022-09-14T02:02:31.171Z,99555.19
2022-09-14T02:05:25.847Z,99559.97
2022-09-14T02:07:58.476Z,99556.59
2022-09-14T02:10:28.530Z,99552.47
2022-09-14T02:13:00.638Z,99546.63
2022-09-14T02:15:30.317Z,99538.38
2022-09-14T02:18:01.422Z,99546.63
2022-09-14T02:20:54.248Z,99535.53
2022-09-14T02:23:24.186Z,99525.19
2022-09-14T02:25:55.692Z,99537.34
2022-09-14T02:28:23.625Z,99540.44
2022-09-14T02:31:13.630Z,99537.38
2022-09-14T02:33:58.102Z,99527.72
2022-09-14T02:36:33.255Z,99525.81
2022-09-14T02:39:19.048Z,99530.16
2022-09-14T02:42:06.039Z,99529.16
2022-09-14T02:45:14.892Z,99528.78
2022-09-14T02:47:55.447Z,99522.16
2022-09-14T02:50:37.267Z,99520.78
2022-09-14T02:53:16.526Z,99525.88
2022-09-14T02:55:51.556Z,99519.41
2022-09-14T02:58:19.693Z,99520.34
2022-09-14T03:00:50.938Z,99521.97
2022-09-14T03:03:21.439Z,99510.59
2022-09-14T03:05:49.096Z,99498.69
2022-09-14T03:08:18.294Z,99495.81
2022-09-14T03:10:46.498Z,99496.81
2022-09-14T03:13:16.304Z,99497.72
2022-09-14T03:15:44.973Z,99504.78
2022-09-14T03:18:14.660Z,99496.56
2022-09-14T03:20:44.277Z,99505.37
2022-09-14T03:23:13.241Z,99496.31
2022-09-14T03:25:44.423Z,99504.72
2022-09-14T03:28:15.376Z,99508.59
2022-09-14T03:30:43.227Z,99494.00
2022-09-14T03:33:11.226Z,99487.06
2022-09-14T03:35:40.430Z,99486.19
2022-09-14T03:38:10.911Z,99477.09
2022-09-14T03:40:39.472Z,99483.75
2022-09-14T03:43:09.185Z,99489.00
2022-09-14T03:45:38.699Z,99502.19
2022-09-14T03:48:11.545Z,99510.69
2022-09-14T03:50:39.902Z,99501.62
2022-09-14T03:53:09.070Z,99489.16
2022-09-14T03:55:40.440Z,99495.75
2022-09-14T03:58:08.528Z,99498.41
2022-09-14T04:00:40.294Z,99506.28
2022-09-14T04:03:09.243Z,99498.59
2022-09-14T04:05:37.092Z,99498.09
2022-09-14T04:08:10.533Z,99497.13
2022-09-14T04:10:41.282Z,99496.13
2022-09-14T04:13:10.361Z,99497.81
2022-09-14T04:15:38.095Z,99495.63
2022-09-14T04:18:06.547Z,99486.25
2022-09-14T04:20:35.569Z,99491.94
2022-09-14T04:23:03.196Z,99475.34
2022-09-14T04:25:31.191Z,99467.22
2022-09-14T04:28:19.223Z,99472.97
2022-09-14T04:31:00.971Z,99471.97
2022-09-14T04:33:32.034Z,99474.75
2022-09-14T04:36:08.908Z,99465.94
2022-09-14T04:38:38.711Z,99471.50
2022-09-14T04:41:09.093Z,99476.34
2022-09-14T04:43:38.558Z,99468.66
2022-09-14T04:46:14.439Z,99465.56
2022-09-14T04:48:42.979Z,99458.56
2022-09-14T04:51:16.759Z,99459.44
2022-09-14T04:53:58.722Z,99447.25
2022-09-14T04:56:51.602Z,99442.22
2022-09-14T05:00:01.285Z,99445.22
2022-09-14T05:02:56.285Z,99448.84
2022-09-14T05:06:10.887Z,99443.59
2022-09-14T05:09:18.623Z,99452.69
2022-09-14T05:12:21.989Z,99456.09
2022-09-14T05:15:36.865Z,99457.50
2022-09-14T05:24:38.232Z,99458.03
2022-09-14T05:27:59.577Z,99467.91
2022-09-14T05:33:20.984Z,99456.44
2022-09-14T05:35:11.524Z,99433.97
2022-09-14T05:44:34.795Z,99449.09
2022-09-14T05:47:18.610Z,99439.72
2022-09-14T05:50:13.346Z,99432.66
2022-09-14T05:52:56.670Z,99450.16
2022-09-14T05:56:02.255Z,99451.81
2022-09-14T05:58:51.962Z,99461.03
2022-09-14T06:01:27.077Z,99451.91
2022-09-14T06:03:58.029Z,99446.91
2022-09-14T06:06:27.103Z,99447.41
2022-09-14T06:09:10.735Z,99444.66
2022-09-14T06:11:59.952Z,99441.84
2022-09-14T06:14:43.498Z,99435.59
2022-09-14T06:17:26.122Z,99426.66
2022-09-14T06:20:12.796Z,99425.09
2022-09-14T06:22:56.187Z,99435.09
2022-09-14T06:25:54.976Z,99436.53
2022-09-14T06:28:42.136Z,99431.50
2022-09-14T06:31:25.981Z,99431.31
2022-09-14T06:34:07.401Z,99433.31
2022-09-14T06:36:36.885Z,99440.91
2022-09-14T06:39:20.129Z,99451.28
2022-09-14T06:42:21.437Z,99461.53
2022-09-14T06:45:09.235Z,99472.28
2022-09-14T06:48:10.521Z,99469.72
2022-09-14T06:50:53.362Z,99478.81
2022-09-14T06:53:58.936Z,99481.72
2022-09-14T06:56:48.672Z,99484.47
2022-09-14T06:59:38.237Z,99463.03
2022-09-14T07:03:05.948Z,99458.09
2022-09-14T07:06:19.432Z,99443.66
2022-09-14T07:09:12.396Z,99440.03
2022-09-14T07:15:08.667Z,99436.03
2022-09-14T07:17:45.606Z,99443.19
2022-09-14T07:20:15.515Z,99465.56
2022-09-14T07:22:45.274Z,99465.44
2022-09-14T07:25:13.415Z,99458.91
2022-09-14T07:27:41.978Z,99451.81
2022-09-14T07:30:12.910Z,99446.06
2022-09-14T07:32:42.525Z,99454.09
2022-09-14T07:35:15.539Z,99451.59
2022-09-14T07:38:01.972Z,99458.19
2022-09-14T07:40:50.949Z,99460.84
2022-09-14T07:43:33.153Z,99461.91
2022-09-14T07:46:39.524Z,99454.31
2022-09-14T07:49:48.032Z,99445.63
2022-09-14T07:53:08.156Z,99442.19
2022-09-14T07:55:55.376Z,99434.16
2022-09-14T07:58:42.723Z,99443.72
2022-09-14T08:01:47.587Z,99443.28
2022-09-14T08:04:31.297Z,99431.00
2022-09-14T08:07:20.728Z,99423.69
2022-09-14T08:10:21.175Z,99405.38
2022-09-14T08:13:07.049Z,99402.62
2022-09-14T08:16:06.501Z,99420.41
2022-09-14T08:18:35.343Z,99421.28
2022-09-14T08:21:23.292Z,99413.53
2022-09-14T08:24:06.407Z,99416.19
2022-09-14T08:26:55.147Z,99419.38
2022-09-14T08:29:48.520Z,99417.13
2022-09-14T08:35:58.497Z,99395.91
2022-09-14T08:38:43.914Z,99388.94
2022-09-14T08:41:35.926Z,99395.94
2022-09-14T08:44:31.977Z,99401.38
2022-09-14T08:47:05.239Z,99397.41
2022-09-14T08:50:09.669Z,99405.81
2022-09-14T08:53:00.269Z,99407.50
2022-09-14T08:56:01.363Z,99409.41
2022-09-14T08:58:58.338Z,99389.47
2022-09-14T09:02:14.419Z,99395.50
2022-09-14T09:05:18.543Z,99395.38
2022-09-14T09:08:21.624Z,99391.63
2022-09-14T09:11:07.479Z,99385.13
2022-09-14T09:13:37.322Z,99381.25
2022-09-14T09:16:10.106Z,99380.41
2022-09-14T09:19:03.859Z,99387.56
2022-09-14T09:21:36.117Z,99407.50
2022-09-14T09:24:38.293Z,99410.94
2022-09-14T09:27:17.759Z,99409.34
2022-09-14T09:29:47.138Z,99420.81
2022-09-14T09:32:20.414Z,99423.66
2022-09-14T09:34:54.374Z,99426.19
2022-09-14T09:37:24.895Z,99428.87
2022-09-14T09:39:53.544Z,99426.94
2022-09-14T09:42:28.531Z,99418.81
2022-09-14T09:45:03.313Z,99420.06
2022-09-14T09:47:41.304Z,99425.56
2022-09-14T09:50:14.588Z,99415.72
2022-09-14T09:52:56.164Z,99414.06
2022-09-14T09:55:38.528Z,99417.13
2022-09-14T09:58:25.286Z,99418.78
2022-09-14T10:01:01.972Z,99413.34
2022-09-14T10:03:36.304Z,99418.53
2022-09-14T10:06:12.312Z,99427.78
2022-09-14T10:08:45.151Z,99433.81
2022-09-14T10:11:33.012Z,99437.59
2022-09-14T10:14:21.890Z,99450.03
2022-09-14T10:17:20.782Z,99447.22
2022-09-14T11:09:32.352Z,99412.59
2022-09-14T11:16:02.609Z,99412.13
2022-09-14T11:22:33.290Z,99388.03
2022-09-14T11:26:01.408Z,99389.94
2022-09-14T11:28:34.510Z,99384.13
2022-09-14T11:31:24.138Z,99396.38
2022-09-14T11:33:59.545Z,99395.00
2022-09-14T11:36:49.293Z,99399.63
2022-09-14T11:39:23.208Z,99401.31
2022-09-14T11:42:06.708Z,99383.22
2022-09-14T11:44:47.460Z,99369.66
2022-09-14T11:47:39.500Z,99361.69
2022-09-14T11:50:17.934Z,99358.63
2022-09-14T11:52:49.289Z,99369.88
2022-09-14T11:55:26.229Z,99373.44
2022-09-14T11:57:55.066Z,99380.75
2022-09-14T12:00:25.929Z,99377.47
2022-09-14T12:03:18.954Z,99366.47
2022-09-14T12:16:03.278Z,99359.28
2022-09-14T12:23:01.428Z,99345.81
2022-09-14T12:47:38.067Z,99302.56
2022-09-14T12:50:30.306Z,99300.72
2022-09-14T12:53:39.393Z,99292.03
2022-09-14T13:00:02.178Z,99276.81
2022-09-14T13:03:09.563Z,99269.75
2022-09-14T13:06:13.879Z,99266.84
2022-09-14T13:09:00.810Z,99265.38
2022-09-14T13:12:07.263Z,99260.59
2022-09-14T13:15:01.795Z,99257.94
2022-09-14T13:18:00.130Z,99257.06
2022-09-14T13:27:36.383Z,99270.66
2022-09-14T13:33:42.140Z,99259.03
2022-09-14T13:36:32.046Z,99266.81
2022-09-14T13:42:44.205Z,99272.97
2022-09-14T14:00:58.593Z,99252.97
2022-09-14T14:03:48.062Z,99261.63
2022-09-14T14:06:41.014Z,99263.94
